createdAt,value
2022-07-30T00:01:24.003Z,66.78
2022-07-30T00:03:54.271Z,66.76
2022-07-30T00:06:22.707Z,66.73
2022-07-30T00:08:51.616Z,67.31
2022-07-30T00:11:27.245Z,67.13
2022-07-30T00:13:57.142Z,67.50
2022-07-30T00:16:25.487Z,67.36
2022-07-30T00:18:56.051Z,67.39
2022-07-30T00:21:35.952Z,67.50
2022-07-30T00:24:06.441Z,67.53
2022-07-30T00:26:34.991Z,67.47
2022-07-30T00:29:04.220Z,67.45
2022-07-30T00:31:33.395Z,66.93
2022-07-30T00:34:03.611Z,66.83
2022-07-30T00:36:31.978Z,67.41
2022-07-30T00:39:01.024Z,67.19
2022-07-30T00:41:30.010Z,66.80
2022-07-30T00:43:59.022Z,66.72
2022-07-30T00:46:27.374Z,67.01
2022-07-30T00:48:56.429Z,66.89
2022-07-30T00:51:26.294Z,66.34
2022-07-30T00:53:55.186Z,66.32
2022-07-30T00:56:24.261Z,66.24
2022-07-30T00:58:54.095Z,66.36
2022-07-30T01:01:22.439Z,66.25
2022-07-30T01:03:51.688Z,65.95
2022-07-30T01:06:21.859Z,66.11
2022-07-30T01:08:52.215Z,65.75
2022-07-30T01:11:21.301Z,65.40
2022-07-30T01:13:50.290Z,65.33
2022-07-30T01:16:18.685Z,65.72
2022-07-30T01:19:05.789Z,65.19
2022-07-30T01:21:41.559Z,65.08
2022-07-30T01:24:23.201Z,65.15
2022-07-30T01:26:54.655Z,64.98
2022-07-30T01:29:25.216Z,65.33
2022-07-30T01:31:59.925Z,64.84
2022-07-30T01:34:30.570Z,64.74
2022-07-30T01:37:01.787Z,65.01
2022-07-30T01:39:31.663Z,64.87
2022-07-30T01:42:05.828Z,64.94
2022-07-30T01:44:35.069Z,64.79
2022-07-30T01:47:04.975Z,64.64
2022-07-30T01:49:37.633Z,64.64
2022-07-30T01:52:09.035Z,64.95
2022-07-30T01:54:38.920Z,64.61
2022-07-30T01:57:10.611Z,64.75
2022-07-30T01:59:41.346Z,64.55
2022-07-30T02:02:09.706Z,64.58
2022-07-30T02:04:39.112Z,64.92
2022-07-30T02:07:14.299Z,64.61
2022-07-30T02:09:49.530Z,64.55
2022-07-30T02:12:29.875Z,64.84
2022-07-30T02:15:11.547Z,64.57
2022-07-30T02:17:45.151Z,64.63
2022-07-30T02:20:17.837Z,64.68
2022-07-30T02:22:49.792Z,64.21
2022-07-30T02:25:21.906Z,64.50
2022-07-30T02:27:55.675Z,64.38
2022-07-30T02:30:29.310Z,64.23
2022-07-30T02:33:03.239Z,64.68
2022-07-30T02:35:33.900Z,64.49
2022-07-30T02:38:03.656Z,64.48
2022-07-30T02:40:34.307Z,64.47
2022-07-30T02:43:04.159Z,64.48
2022-07-30T02:45:33.709Z,64.53
2022-07-30T02:48:06.527Z,64.33
2022-07-30T02:50:37.238Z,64.63
2022-07-30T02:53:10.867Z,64.72
2022-07-30T02:55:43.890Z,64.69
2022-07-30T02:58:18.444Z,64.52
2022-07-30T03:00:48.172Z,64.82
2022-07-30T03:03:18.724Z,64.29
2022-07-30T03:05:51.232Z,64.53
2022-07-30T03:08:20.141Z,64.61
2022-07-30T03:10:51.071Z,64.69
2022-07-30T03:13:24.894Z,64.74
2022-07-30T03:15:54.926Z,64.66
2022-07-30T03:18:25.548Z,64.78
2022-07-30T03:20:57.658Z,64.71
2022-07-30T03:23:27.638Z,64.18
2022-07-30T03:26:01.124Z,64.75
2022-07-30T03:28:34.111Z,64.58
2022-07-30T03:31:02.670Z,64.17
2022-07-30T03:33:38.925Z,64.51
2022-07-30T03:36:09.373Z,64.21
2022-07-30T03:38:40.861Z,64.09
2022-07-30T03:41:09.807Z,63.95
2022-07-30T03:44:02.821Z,63.90
2022-07-30T03:46:33.465Z,63.91
2022-07-30T03:49:03.146Z,63.90
2022-07-30T03:51:32.907Z,63.71
2022-07-30T03:54:03.695Z,63.69
2022-07-30T03:56:35.007Z,63.82
2022-07-30T03:59:11.922Z,64.02
2022-07-30T04:01:41.866Z,64.08
2022-07-30T04:04:19.752Z,64.34
2022-07-30T04:06:48.278Z,64.33
2022-07-30T04:09:17.530Z,64.52
2022-07-30T04:11:45.952Z,64.41
2022-07-30T04:14:24.015Z,64.80
2022-07-30T04:17:01.126Z,64.43
2022-07-30T04:19:37.038Z,64.83
2022-07-30T04:22:07.067Z,64.96
2022-07-30T04:24:40.396Z,64.93
2022-07-30T04:27:10.353Z,64.85
2022-07-30T04:29:41.888Z,64.69
2022-07-30T04:32:10.964Z,64.97
2022-07-30T04:34:53.222Z,65.08
2022-07-30T04:37:41.482Z,64.89
2022-07-30T04:40:11.107Z,65.43
2022-07-30T04:42:39.828Z,65.46
2022-07-30T04:45:13.443Z,65.56
2022-07-30T04:47:54.248Z,65.90
2022-07-30T04:50:28.592Z,66.14
2022-07-30T04:52:59.999Z,66.11
2022-07-30T04:55:32.681Z,66.23
2022-07-30T04:58:03.455Z,66.60
2022-07-30T05:00:40.965Z,66.19
2022-07-30T05:03:16.804Z,66.59
2022-07-30T05:05:56.905Z,66.58
2022-07-30T05:08:28.187Z,66.52
2022-07-30T05:10:58.254Z,66.72
2022-07-30T05:13:34.071Z,66.40
2022-07-30T05:16:07.014Z,66.74
2022-07-30T05:18:36.377Z,66.75
2022-07-30T05:21:05.368Z,66.83
2022-07-30T05:23:37.486Z,66.84
2022-07-30T05:26:22.306Z,66.62
2022-07-30T05:28:57.904Z,66.79
2022-07-30T05:31:34.877Z,66.97
2022-07-30T05:34:04.698Z,67.11
2022-07-30T05:36:44.812Z,66.97
2022-07-30T05:39:16.327Z,66.88
2022-07-30T05:42:08.511Z,66.94
2022-07-30T05:44:44.404Z,66.61
2022-07-30T05:47:14.448Z,66.59
2022-07-30T05:49:42.979Z,66.69
2022-07-30T05:52:16.541Z,66.62
2022-07-30T05:54:45.827Z,66.61
2022-07-30T05:57:27.105Z,66.67
2022-07-30T05:59:55.553Z,66.76
2022-07-30T06:02:46.460Z,66.51
2022-07-30T06:05:24.043Z,66.07
2022-07-30T06:07:53.391Z,66.31
2022-07-30T06:10:24.233Z,65.96
2022-07-30T06:12:53.444Z,65.72
2022-07-30T06:15:25.671Z,65.85
2022-07-30T06:18:01.460Z,65.70
2022-07-30T06:20:52.028Z,65.42
2022-07-30T06:23:33.089Z,65.55
2022-07-30T06:26:19.723Z,65.50
2022-07-30T06:28:49.387Z,65.59
2022-07-30T06:31:24.055Z,65.25
2022-07-30T06:33:54.994Z,65.50
2022-07-30T06:36:24.229Z,65.64
2022-07-30T06:39:01.859Z,65.23
2022-07-30T06:41:59.431Z,65.51
2022-07-30T06:45:02.569Z,65.12
2022-07-30T06:47:51.331Z,64.97
2022-07-30T06:50:21.462Z,64.51
2022-07-30T06:52:50.275Z,64.59
2022-07-30T06:55:18.943Z,64.38
2022-07-30T06:57:51.887Z,64.57
2022-07-30T07:00:40.146Z,64.19
2022-07-30T07:03:13.660Z,64.36
2022-07-30T07:05:43.735Z,63.90
2022-07-30T07:08:12.910Z,63.94
2022-07-30T07:10:46.319Z,63.75
2022-07-30T07:13:29.917Z,63.72
2022-07-30T07:15:59.783Z,63.37
2022-07-30T07:18:31.102Z,63.49
2022-07-30T07:21:08.311Z,63.36
2022-07-30T07:23:41.576Z,63.13
2022-07-30T07:26:34.128Z,62.82
2022-07-30T07:29:05.379Z,63.19
2022-07-30T07:32:05.161Z,63.02
2022-07-30T07:34:24.674Z,62.88
2022-07-30T07:36:55.102Z,62.65
2022-07-30T07:39:24.998Z,63.04
2022-07-30T07:41:53.391Z,62.85
2022-07-30T07:44:25.277Z,62.53
2022-07-30T07:46:54.213Z,62.08
2022-07-30T07:49:25.775Z,62.34
2022-07-30T07:51:55.734Z,62.06
2022-07-30T07:54:25.322Z,61.40
2022-07-30T07:56:56.960Z,61.51
2022-07-30T07:59:46.267Z,60.90
2022-07-30T08:02:19.898Z,60.95
2022-07-30T08:05:03.489Z,60.58
2022-07-30T08:08:06.132Z,60.42
2022-07-30T08:11:05.847Z,60.29
2022-07-30T08:13:54.972Z,59.60
2022-07-30T08:16:55.376Z,59.59
2022-07-30T08:20:00.570Z,59.01
2022-07-30T08:22:30.680Z,58.94
2022-07-30T08:25:00.967Z,58.90
2022-07-30T08:27:33.044Z,58.94
2022-07-30T08:30:04.891Z,58.51
2022-07-30T08:32:33.562Z,58.11
2022-07-30T08:35:03.616Z,57.40
2022-07-30T08:37:33.266Z,57.20
2022-07-30T08:40:06.515Z,57.23
2022-07-30T08:42:36.962Z,56.69
2022-07-30T08:45:08.095Z,56.05
2022-07-30T08:47:40.076Z,55.93
2022-07-30T08:50:12.515Z,55.81
2022-07-30T08:53:17.232Z,55.24
2022-07-30T08:55:48.411Z,54.61
2022-07-30T08:58:30.568Z,54.35
2022-07-30T09:00:59.717Z,54.24
2022-07-30T09:03:30.654Z,54.09
2022-07-30T09:06:03.053Z,53.53
2022-07-30T09:08:32.106Z,53.29
2022-07-30T09:11:02.433Z,52.68
2022-07-30T09:13:34.469Z,52.93
2022-07-30T09:16:04.231Z,52.37
2022-07-30T09:18:37.433Z,52.17
2022-07-30T09:21:16.836Z,51.68
2022-07-30T09:24:00.575Z,51.44
2022-07-30T09:27:05.534Z,51.10
2022-07-30T09:29:59.937Z,51.12
2022-07-30T09:32:51.840Z,50.59
2022-07-30T09:35:32.924Z,50.14
2022-07-30T09:38:13.989Z,49.88
2022-07-30T09:41:12.287Z,49.54
2022-07-30T09:44:09.510Z,49.37
2022-07-30T09:46:47.980Z,48.83
2022-07-30T09:49:24.378Z,48.16
2022-07-30T09:51:56.925Z,47.41
2022-07-30T09:54:51.580Z,46.82
2022-07-30T10:00:23.486Z,45.98
2022-07-30T10:03:21.561Z,45.49
2022-07-30T10:06:33.742Z,44.81
2022-07-30T10:09:13.620Z,44.61
2022-07-30T10:11:46.915Z,44.05
2022-07-30T10:14:16.839Z,43.50
2022-07-30T10:16:47.611Z,43.16
2022-07-30T10:19:23.021Z,42.35
2022-07-30T10:22:11.700Z,41.99
2022-07-30T10:24:58.856Z,41.28
2022-07-30T10:27:48.361Z,40.75
2022-07-30T10:30:29.302Z,40.06
2022-07-30T10:33:01.407Z,39.73
2022-07-30T10:35:34.899Z,39.11
2022-07-30T10:38:13.574Z,38.57
2022-07-30T10:40:49.426Z,38.36
2022-07-30T10:43:46.619Z,38.20
2022-07-30T10:46:27.811Z,38.24
2022-07-30T10:49:11.847Z,37.72
2022-07-30T10:51:49.006Z,37.60
2022-07-30T10:54:39.467Z,37.12
2022-07-30T10:57:14.995Z,37.20
2022-07-30T11:00:15.598Z,36.85
2022-07-30T11:03:19.410Z,36.46
2022-07-30T11:05:53.755Z,35.49
2022-07-30T11:08:48.290Z,35.22
2022-07-30T11:12:01.402Z,35.27
2022-07-30T11:14:58.639Z,35.01
2022-07-30T11:18:01.053Z,35.17
2022-07-30T11:20:30.918Z,35.19
2022-07-30T11:23:29.445Z,35.28
2022-07-30T11:26:04.423Z,34.71
2022-07-30T11:28:41.125Z,34.41
2022-07-30T11:31:54.991Z,34.36
2022-07-30T11:34:30.603Z,34.36
2022-07-30T11:37:21.655Z,35.08
2022-07-30T11:40:12.643Z,34.94
2022-07-30T11:42:42.804Z,34.93
2022-07-30T11:45:27.313Z,34.82
2022-07-30T11:47:57.681Z,34.78
2022-07-30T11:50:27.863Z,35.08
2022-07-30T11:52:58.058Z,35.26
2022-07-30T11:55:31.587Z,34.68
2022-07-30T11:58:02.101Z,34.89
2022-07-30T12:00:36.898Z,34.78
2022-07-30T12:03:11.432Z,34.87
2022-07-30T12:05:41.203Z,34.36
2022-07-30T12:08:10.311Z,34.24
2022-07-30T12:11:02.283Z,32.90
2022-07-30T12:13:44.292Z,32.31
2022-07-30T12:16:17.852Z,31.12
2022-07-30T12:18:48.568Z,31.42
2022-07-30T12:21:17.830Z,31.17
2022-07-30T12:23:55.712Z,29.70
2022-07-30T12:26:27.771Z,29.75
2022-07-30T12:28:57.533Z,29.60
2022-07-30T12:31:26.858Z,30.62
2022-07-30T12:33:58.314Z,31.16
2022-07-30T12:36:31.335Z,31.82
2022-07-30T12:39:00.391Z,32.09
2022-07-30T12:41:47.417Z,31.86
2022-07-30T12:44:35.306Z,31.56
2022-07-30T12:47:04.945Z,31.30
2022-07-30T12:49:36.780Z,30.86
2022-07-30T12:52:27.524Z,31.38
2022-07-30T12:55:07.406Z,31.21
2022-07-30T12:57:57.807Z,31.60
2022-07-30T13:00:29.129Z,31.75
2022-07-30T13:02:58.663Z,32.00
2022-07-30T13:05:50.439Z,32.63
2022-07-30T13:08:19.275Z,32.77
2022-07-30T13:11:00.095Z,32.00
2022-07-30T13:13:31.380Z,31.90
2022-07-30T13:16:01.654Z,31.53
2022-07-30T13:18:31.775Z,32.05
2022-07-30T13:21:01.387Z,32.44
2022-07-30T13:23:31.080Z,33.17
2022-07-30T13:26:00.219Z,33.39
2022-07-30T13:28:31.855Z,33.61
2022-07-30T13:31:00.839Z,34.01
2022-07-30T13:33:29.481Z,33.44
2022-07-30T13:35:58.281Z,32.96
2022-07-30T13:38:26.767Z,32.92
2022-07-30T13:41:00.425Z,32.05
2022-07-30T13:43:33.694Z,31.91
2022-07-30T13:46:04.030Z,31.83
2022-07-30T13:48:32.607Z,31.70
2022-07-30T13:51:01.960Z,32.43
2022-07-30T13:53:30.537Z,32.24
2022-07-30T13:56:00.765Z,31.61
2022-07-30T13:58:34.085Z,31.30
2022-07-30T14:01:07.752Z,31.44
2022-07-30T14:03:36.231Z,31.04
2022-07-30T14:06:10.800Z,30.57
2022-07-30T14:08:39.990Z,30.44
2022-07-30T14:11:09.128Z,30.71
2022-07-30T14:13:37.913Z,30.84
2022-07-30T14:16:22.999Z,30.75
2022-07-30T14:18:57.734Z,30.01
2022-07-30T14:21:26.979Z,29.58
2022-07-30T14:23:56.321Z,30.18
2022-07-30T14:26:25.559Z,29.79
2022-07-30T14:29:05.398Z,29.75
2022-07-30T14:31:35.983Z,28.76
2022-07-30T14:34:04.742Z,28.69
2022-07-30T14:36:34.761Z,28.20
2022-07-30T14:39:04.479Z,27.99
2022-07-30T14:41:33.350Z,28.04
2022-07-30T14:44:02.894Z,28.03
2022-07-30T14:46:31.255Z,28.02
2022-07-30T14:49:01.703Z,27.59
2022-07-30T14:51:33.876Z,26.83
2022-07-30T14:54:04.120Z,26.47
2022-07-30T14:56:32.452Z,25.91
2022-07-30T14:59:01.756Z,25.79
2022-07-30T15:01:30.411Z,25.81
2022-07-30T15:04:01.571Z,26.63
2022-07-30T15:06:30.001Z,26.82
2022-07-30T15:08:59.117Z,25.97
2022-07-30T15:11:27.442Z,25.66
2022-07-30T15:13:56.691Z,25.38
2022-07-30T15:16:26.296Z,24.99
2022-07-30T15:18:55.493Z,25.88
2022-07-30T15:21:25.472Z,25.66
2022-07-30T15:23:54.712Z,26.10
2022-07-30T15:26:23.107Z,25.63
2022-07-30T15:28:52.240Z,25.56
2022-07-30T15:31:20.688Z,25.78
2022-07-30T15:33:49.813Z,25.86
2022-07-30T15:36:18.183Z,26.56
2022-07-30T15:38:48.742Z,26.68
2022-07-30T15:41:17.094Z,27.14
2022-07-30T15:43:46.201Z,26.98
2022-07-30T15:46:14.647Z,27.43
2022-07-30T15:48:43.898Z,27.52
2022-07-30T15:51:12.947Z,27.96
2022-07-30T15:53:41.307Z,28.40
2022-07-30T15:56:11.855Z,28.53
2022-07-30T15:58:43.453Z,28.42
2022-07-30T16:01:13.243Z,28.31
2022-07-30T16:03:41.593Z,28.50
2022-07-30T16:06:10.901Z,28.12
2022-07-30T16:08:39.302Z,28.50
2022-07-30T16:11:10.906Z,28.52
2022-07-30T16:13:40.841Z,28.02
2022-07-30T16:16:10.508Z,28.22
2022-07-30T16:18:39.034Z,28.24
2022-07-30T16:21:08.251Z,28.58
2022-07-30T16:23:38.747Z,28.46
2022-07-30T16:26:08.640Z,28.00
2022-07-30T16:28:37.156Z,27.57
2022-07-30T16:31:07.608Z,27.77
2022-07-30T16:33:35.939Z,27.08
2022-07-30T16:36:05.195Z,26.98
2022-07-30T16:38:33.923Z,26.75
2022-07-30T16:41:02.327Z,26.54
2022-07-30T16:43:32.211Z,26.66
2022-07-30T16:46:00.894Z,26.26
2022-07-30T16:48:32.634Z,26.48
2022-07-30T16:51:01.103Z,26.05
2022-07-30T16:53:30.397Z,26.49
2022-07-30T16:55:58.819Z,26.18
2022-07-30T16:58:28.435Z,26.12
2022-07-30T17:00:59.609Z,26.48
2022-07-30T17:03:28.754Z,26.19
2022-07-30T17:05:58.842Z,26.02
2022-07-30T17:08:27.174Z,26.38
2022-07-30T17:10:57.831Z,26.41
2022-07-30T17:13:26.622Z,26.49
2022-07-30T17:15:55.426Z,26.04
2022-07-30T17:18:23.815Z,26.51
2022-07-30T17:20:53.051Z,26.61
2022-07-30T17:23:22.768Z,26.60
2022-07-30T17:25:52.001Z,26.71
2022-07-30T17:28:27.030Z,26.57
2022-07-30T17:30:56.062Z,27.20
2022-07-30T17:33:24.439Z,27.13
2022-07-30T17:35:53.319Z,26.86
2022-07-30T17:38:23.047Z,27.41
2022-07-30T17:40:52.238Z,27.83
2022-07-30T17:43:21.211Z,28.12
2022-07-30T17:45:50.377Z,28.14
2022-07-30T17:48:19.133Z,28.37
2022-07-30T17:50:47.488Z,29.02
2022-07-30T17:53:16.505Z,29.48
2022-07-30T17:55:57.789Z,30.49
2022-07-30T17:58:27.444Z,30.97
2022-07-30T18:00:57.294Z,31.61
2022-07-30T18:03:26.327Z,32.04
2022-07-30T18:05:56.148Z,32.63
2022-07-30T18:08:25.394Z,33.30
2022-07-30T18:10:55.135Z,33.66
2022-07-30T18:13:27.071Z,33.89
2022-07-30T18:15:55.771Z,34.06
2022-07-30T18:18:24.661Z,34.54
2022-07-30T18:20:53.383Z,34.71
2022-07-30T18:23:21.730Z,34.90
2022-07-30T18:25:53.372Z,35.23
2022-07-30T18:28:24.334Z,35.66
2022-07-30T18:30:53.674Z,36.04
2022-07-30T18:33:22.306Z,36.31
2022-07-30T18:35:50.866Z,36.63
2022-07-30T18:38:19.602Z,36.90
2022-07-30T18:40:57.600Z,37.26
2022-07-30T18:43:29.005Z,37.27
2022-07-30T18:46:00.739Z,37.86
2022-07-30T18:48:29.115Z,38.07
2022-07-30T18:50:57.831Z,38.07
2022-07-30T18:53:26.147Z,38.72
2022-07-30T18:55:55.463Z,38.72
2022-07-30T18:58:24.205Z,39.18
2022-07-30T19:00:54.034Z,39.33
2022-07-30T19:03:23.163Z,39.70
2022-07-30T19:05:51.823Z,40.02
2022-07-30T19:08:21.029Z,39.89
2022-07-30T19:10:49.622Z,40.52
2022-07-30T19:13:18.853Z,40.72
2022-07-30T19:15:47.419Z,40.83
2022-07-30T19:18:18.037Z,41.09
2022-07-30T19:20:46.576Z,41.36
2022-07-30T19:23:16.911Z,41.63
2022-07-30T19:25:45.795Z,41.67
2022-07-30T19:28:15.889Z,41.85
2022-07-30T19:30:44.792Z,42.00
2022-07-30T19:33:15.900Z,41.95
2022-07-30T19:35:47.171Z,42.25
2022-07-30T19:38:22.113Z,42.30
2022-07-30T19:40:52.751Z,42.54
2022-07-30T19:43:24.044Z,42.73
2022-07-30T19:45:53.486Z,43.01
2022-07-30T19:48:28.378Z,42.98
2022-07-30T19:51:00.712Z,43.12
2022-07-30T19:53:31.657Z,43.34
2022-07-30T19:56:10.600Z,43.29
2022-07-30T19:58:40.194Z,43.71
2022-07-30T20:01:11.134Z,43.94
2022-07-30T20:03:39.805Z,43.99
2022-07-30T20:06:14.883Z,44.03
2022-07-30T20:08:44.703Z,44.27
2022-07-30T20:11:21.302Z,44.66
2022-07-30T20:14:03.171Z,44.74
2022-07-30T20:16:32.784Z,44.92
2022-07-30T20:19:01.355Z,45.14
2022-07-30T20:21:56.696Z,45.33
2022-07-30T20:24:22.920Z,45.56
2022-07-30T20:26:52.035Z,45.58
2022-07-30T20:29:21.096Z,45.93
2022-07-30T20:31:50.224Z,46.09
2022-07-30T20:34:23.498Z,45.83
2022-07-30T20:36:56.704Z,46.08
2022-07-30T20:39:26.418Z,46.50
2022-07-30T20:42:07.798Z,46.52
2022-07-30T20:44:37.956Z,46.27
2022-07-30T20:47:08.472Z,46.30
2022-07-30T20:49:38.877Z,46.82
2022-07-30T20:52:10.299Z,46.74
2022-07-30T20:54:43.667Z,46.65
2022-07-30T20:57:15.608Z,47.00
2022-07-30T20:59:45.187Z,47.02
2022-07-30T21:02:15.184Z,47.23
2022-07-30T21:04:46.370Z,47.34
2022-07-30T21:07:20.694Z,47.73
2022-07-30T21:09:52.625Z,47.81
2022-07-30T21:12:32.820Z,48.02
2022-07-30T21:15:02.540Z,48.22
2022-07-30T21:17:31.343Z,47.94
2022-07-30T21:20:01.709Z,48.43
2022-07-30T21:22:31.549Z,48.65
2022-07-30T21:25:00.575Z,48.73
2022-07-30T21:27:30.480Z,48.50
2022-07-30T21:29:59.934Z,48.93
2022-07-30T21:32:28.363Z,48.88
2022-07-30T21:34:57.782Z,49.05
2022-07-30T21:37:36.338Z,49.41
2022-07-30T21:40:08.150Z,49.26
2022-07-30T21:42:37.202Z,49.36
2022-07-30T21:45:18.143Z,49.69
2022-07-30T21:47:47.771Z,49.82
2022-07-30T21:50:17.409Z,49.36
2022-07-30T21:52:45.775Z,49.55
2022-07-30T21:55:16.193Z,49.74
2022-07-30T21:57:45.124Z,49.32
2022-07-30T22:00:21.856Z,49.60
2022-07-30T22:02:53.904Z,49.45
2022-07-30T22:05:23.362Z,49.46
2022-07-30T22:07:52.747Z,49.62
2022-07-30T22:10:26.719Z,50.08
2022-07-30T22:12:56.683Z,50.13
2022-07-30T22:15:25.272Z,50.05
2022-07-30T22:17:58.724Z,50.60
2022-07-30T22:20:30.428Z,50.39
2022-07-30T22:23:01.443Z,50.67
2022-07-30T22:25:41.610Z,50.54
2022-07-30T22:28:13.553Z,50.90
2022-07-30T22:30:42.409Z,51.11
2022-07-30T22:33:13.550Z,51.20
2022-07-30T22:35:46.707Z,51.50
2022-07-30T22:38:19.857Z,51.56
2022-07-30T22:40:49.916Z,51.55
2022-07-30T22:43:18.913Z,51.55
2022-07-30T22:45:48.715Z,51.70
2022-07-30T22:48:25.331Z,51.67
2022-07-30T22:50:55.519Z,52.13
2022-07-30T22:54:10.417Z,52.08
2022-07-30T22:56:15.998Z,52.23
2022-07-30T22:58:48.785Z,52.17
2022-07-30T23:01:18.021Z,52.18
2022-07-30T23:03:48.139Z,52.36
2022-07-30T23:06:16.629Z,52.47
2022-07-30T23:08:45.666Z,52.43
2022-07-30T23:11:15.710Z,52.53
2022-07-30T23:13:44.424Z,52.36
2022-07-30T23:16:13.512Z,52.50
2022-07-30T23:18:42.238Z,52.79
2022-07-30T23:21:11.157Z,52.45
2022-07-30T23:23:40.074Z,52.43
2022-07-30T23:26:09.581Z,52.34
2022-07-30T23:28:39.283Z,52.45
2022-07-30T23:31:08.452Z,52.38
2022-07-30T23:33:36.769Z,52.58
2022-07-30T23:36:07.301Z,52.39
2022-07-30T23:38:36.147Z,52.61
2022-07-30T23:41:07.129Z,52.86
2022-07-30T23:43:35.851Z,52.85
2022-07-30T23:46:09.531Z,53.12
2022-07-30T23:48:39.639Z,53.32
2022-07-30T23:51:09.186Z,53.28
2022-07-30T23:53:37.939Z,53.58
2022-07-30T23:56:07.946Z,53.76
2022-07-30T23:58:37.057Z,53.67
